Time;durP1;ratioP1;P1;durP2;ratioP2;P2;SDS_P1;SDS_P2;PMS_P1;PMS_P2;Temp;Humidity;BMP_temperature;BMP_pressure;BME280_temperature;BME280_humidity;BME280_pressure;Samples;Min_cycle;Max_cycle;Signal;HPM_P1;HPM_P2
2022/01/05 00:00:42;;;;;;;13.93;12.63;;;4.00;99.90;;;;;;5072265;28;20226;-79
2022/01/05 00:03:09;;;;;;;13.82;12.40;;;3.90;99.90;;;;;;5075257;28;20225;-76
2022/01/05 00:05:38;;;;;;;12.80;11.57;;;3.90;99.90;;;;;;5074820;28;20230;-76
2022/01/05 00:08:05;;;;;;;12.27;11.18;;;3.90;99.90;;;;;;5076995;28;20198;-74
2022/01/05 00:10:32;;;;;;;12.02;10.82;;;4.00;99.90;;;;;;5071722;28;20233;-73
2022/01/05 00:12:59;;;;;;;12.45;11.35;;;4.00;99.90;;;;;;5070943;28;20198;-74
2022/01/05 00:15:27;;;;;;;13.48;12.15;;;4.00;99.90;;;;;;5074449;28;20233;-72
2022/01/05 00:17:54;;;;;;;12.65;11.45;;;4.00;99.90;;;;;;5076208;28;20627;-72
2022/01/05 00:20:21;;;;;;;12.38;11.18;;;4.10;99.90;;;;;;5073797;28;20443;-76
2022/01/05 00:22:49;;;;;;;12.95;11.75;;;4.10;99.90;;;;;;5073805;28;20237;-72
2022/01/05 00:25:17;;;;;;;18.40;15.07;;;4.10;99.90;;;;;;5065392;28;20639;-73
2022/01/05 00:27:44;;;;;;;14.98;13.48;;;4.10;99.90;;;;;;5072937;28;20200;-75
2022/01/05 00:30:11;;;;;;;15.30;13.77;;;4.00;99.90;;;;;;5069077;28;20554;-76
2022/01/05 00:32:39;;;;;;;15.50;12.40;;;4.00;99.90;;;;;;5070957;28;20272;-73
2022/01/05 00:35:07;;;;;;;13.18;11.95;;;3.90;99.90;;;;;;5067785;28;20272;-76
2022/01/05 00:37:34;;;;;;;13.63;12.32;;;3.80;99.90;;;;;;5077784;28;20201;-74
2022/01/05 00:40:03;;;;;;;14.13;12.73;;;3.80;99.90;;;;;;5075648;28;20251;-78
2022/01/05 00:42:30;;;;;;;14.20;12.80;;;3.80;99.90;;;;;;5077369;28;20545;-72
2022/01/05 00:44:57;;;;;;;12.50;11.25;;;3.80;99.90;;;;;;5073160;28;20344;-74
2022/01/05 00:47:24;;;;;;;13.45;12.05;;;3.80;99.90;;;;;;5069176;28;20559;-72
2022/01/05 00:49:51;;;;;;;12.18;10.93;;;3.90;99.90;;;;;;5068505;28;20647;-75
2022/01/05 00:52:18;;;;;;;12.60;11.40;;;3.90;99.90;;;;;;5073644;28;20614;-72
2022/01/05 00:54:45;;;;;;;12.60;11.32;;;3.90;99.90;;;;;;5073757;28;20556;-73
2022/01/05 00:57:15;;;;;;;12.82;11.52;;;4.00;99.90;;;;;;5074036;28;20218;-73
2022/01/05 00:59:42;;;;;;;13.05;11.82;;;4.00;99.90;;;;;;5069830;28;20194;-73
2022/01/05 01:02:09;;;;;;;13.25;11.85;;;4.00;99.90;;;;;;5069591;28;20581;-77
2022/01/05 01:04:36;;;;;;;12.65;11.45;;;4.00;99.90;;;;;;5069929;28;20218;-75
2022/01/05 01:07:04;;;;;;;13.50;12.10;;;4.00;99.90;;;;;;5074606;28;20222;-73
2022/01/05 01:09:31;;;;;;;13.15;11.90;;;4.10;99.90;;;;;;5068501;28;20202;-72
2022/01/05 01:11:58;;;;;;;15.35;11.93;;;4.10;99.90;;;;;;5069405;28;20226;-73
2022/01/05 01:14:26;;;;;;;12.32;10.82;;;4.10;99.90;;;;;;5068659;28;20198;-76
2022/01/05 01:16:53;;;;;;;12.30;11.00;;;4.10;99.90;;;;;;5069379;28;20224;-75
2022/01/05 01:19:20;;;;;;;13.85;12.48;;;4.10;99.90;;;;;;5071064;28;20275;-76
2022/01/05 01:21:47;;;;;;;13.90;12.50;;;4.10;99.90;;;;;;5065376;28;20222;-76
2022/01/05 01:24:14;;;;;;;14.52;13.02;;;4.00;99.90;;;;;;5063619;28;20225;-73
2022/01/05 01:26:42;;;;;;;15.88;14.27;;;4.00;99.90;;;;;;5065600;28;20298;-73
2022/01/05 01:29:09;;;;;;;14.70;13.23;;;4.00;99.90;;;;;;5073251;28;20198;-73
2022/01/05 01:31:37;;;;;;;13.00;11.63;;;4.00;99.90;;;;;;5072162;28;20724;-75
2022/01/05 01:34:04;;;;;;;13.52;12.13;;;4.00;99.90;;;;;;5076007;28;20649;-78
2022/01/05 01:36:31;;;;;;;12.60;11.45;;;3.90;99.90;;;;;;5073454;28;20228;-74
2022/01/05 01:38:59;;;;;;;13.40;12.00;;;3.90;99.90;;;;;;5073959;28;20232;-75
2022/01/05 01:41:26;;;;;;;15.95;14.30;;;3.80;99.90;;;;;;5071364;28;20221;-74
2022/01/05 01:43:53;;;;;;;13.93;12.63;;;3.80;99.90;;;;;;5071060;28;20273;-75
2022/01/05 01:46:20;;;;;;;12.35;11.23;;;3.80;99.90;;;;;;5069450;28;20222;-75
2022/01/05 01:48:49;;;;;;;12.45;11.25;;;3.80;99.90;;;;;;5067908;28;20259;-73
2022/01/05 01:51:17;;;;;;;12.98;11.68;;;3.80;99.90;;;;;;5068107;28;20214;-73
2022/01/05 01:53:44;;;;;;;12.73;11.38;;;3.90;99.90;;;;;;5075090;28;20234;-72
2022/01/05 01:56:13;;;;;;;12.60;11.40;;;3.90;99.90;;;;;;5075547;28;20222;-76
2022/01/05 01:58:41;;;;;;;12.57;11.27;;;4.00;99.90;;;;;;5075153;28;20645;-72
2022/01/05 02:01:08;;;;;;;11.70;10.57;;;4.00;99.90;;;;;;5065185;28;20494;-74
2022/01/05 02:03:35;;;;;;;13.45;12.05;;;4.00;99.90;;;;;;5071918;28;20225;-75
2022/01/05 02:06:03;;;;;;;12.35;11.15;;;4.00;99.90;;;;;;5072860;28;21604;-72
2022/01/05 02:08:30;;;;;;;13.80;12.30;;;4.00;99.90;;;;;;5074601;28;20201;-76
2022/01/05 02:10:57;;;;;;;13.15;11.93;;;4.00;99.90;;;;;;5069300;28;20226;-76
2022/01/05 02:13:24;;;;;;;13.82;12.50;;;4.00;99.90;;;;;;5070464;28;20194;-75
2022/01/05 02:15:52;;;;;;;16.50;14.82;;;3.90;99.90;;;;;;5073986;28;20230;-72
2022/01/05 02:21:05;;;;;;;15.20;13.63;;;3.70;99.90;;;;;;5070044;28;20271;-75
2022/01/05 02:23:32;;;;;;;13.20;11.90;;;3.70;99.90;;;;;;5072035;28;20651;-73
2022/01/05 02:25:59;;;;;;;14.07;12.60;;;3.70;99.90;;;;;;5075375;28;20936;-73
2022/01/05 02:28:26;;;;;;;13.18;11.88;;;3.70;99.90;;;;;;5075638;28;20244;-72
2022/01/05 02:30:54;;;;;;;13.50;12.18;;;3.70;99.90;;;;;;5076057;28;20241;-73
2022/01/05 02:33:21;;;;;;;12.38;11.18;;;3.80;99.90;;;;;;5072552;28;20454;-73
2022/01/05 02:35:49;;;;;;;13.02;11.73;;;3.80;99.90;;;;;;5071765;28;20646;-77
2022/01/05 02:38:20;;;;;;;12.75;11.55;;;3.80;99.90;;;;;;5072149;28;20202;-73
2022/01/05 02:40:47;;;;;;;13.38;11.98;;;3.80;99.90;;;;;;5069830;28;20222;-76
2022/01/05 02:43:14;;;;;;;12.65;11.45;;;3.80;99.90;;;;;;5073595;28;20201;-74
2022/01/05 02:45:41;;;;;;;12.90;11.60;;;3.80;99.90;;;;;;5068310;28;20221;-73
2022/01/05 02:48:08;;;;;;;13.90;12.50;;;3.80;99.90;;;;;;5074387;28;20252;-77
2022/01/05 02:50:36;;;;;;;13.52;12.18;;;3.70;99.90;;;;;;5076179;28;20230;-76
2022/01/05 02:53:03;;;;;;;12.40;11.30;;;3.70;99.90;;;;;;5078497;28;20221;-75
2022/01/05 02:55:32;;;;;;;12.90;11.30;;;3.70;99.90;;;;;;5075537;28;20240;-78
2022/01/05 02:57:59;;;;;;;12.68;11.48;;;3.70;99.90;;;;;;5078268;28;20195;-73
2022/01/05 03:00:26;;;;;;;12.80;11.60;;;3.70;99.90;;;;;;5074494;28;20281;-75
2022/01/05 03:02:53;;;;;;;12.82;11.63;;;3.80;99.90;;;;;;5079019;28;20210;-79
2022/01/05 03:05:20;;;;;;;12.43;11.32;;;3.80;99.90;;;;;;5078986;28;20688;-77
2022/01/05 03:07:47;;;;;;;13.10;11.68;;;3.80;99.90;;;;;;5075346;28;20226;-72
2022/01/05 03:10:15;;;;;;;13.15;11.82;;;3.80;99.90;;;;;;5080078;28;20576;-75
2022/01/05 03:12:44;;;;;;;11.82;10.70;;;3.80;99.90;;;;;;5077121;28;20221;-76
2022/01/05 03:15:12;;;;;;;12.35;11.15;;;3.80;99.90;;;;;;5077733;28;20665;-77
2022/01/05 03:17:40;;;;;;;12.68;11.48;;;3.80;99.90;;;;;;5078590;28;20217;-75
2022/01/05 03:20:09;;;;;;;13.82;12.43;;;3.80;99.90;;;;;;5073457;28;20216;-73
2022/01/05 03:22:36;;;;;;;13.73;12.40;;;3.80;99.90;;;;;;5075515;28;20217;-75
2022/01/05 03:25:05;;;;;;;14.25;12.30;;;3.80;99.90;;;;;;5073705;28;20283;-77
2022/01/05 03:27:32;;;;;;;16.33;13.75;;;3.80;99.90;;;;;;5073490;28;20642;-76
2022/01/05 03:30:00;;;;;;;17.52;14.95;;;3.80;99.90;;;;;;5073982;28;20229;-74
2022/01/05 03:32:36;;;;;;;18.95;15.27;;;3.80;99.90;;;;;;5070461;28;20211;-74
2022/01/05 03:35:05;;;;;;;16.42;14.70;;;3.90;99.90;;;;;;5068885;28;20198;-73
2022/01/05 03:37:32;;;;;;;15.38;13.77;;;3.80;99.90;;;;;;5074775;28;20226;-79
2022/01/05 03:39:59;;;;;;;15.60;13.77;;;3.80;99.90;;;;;;5081419;28;20190;-73
2022/01/05 03:42:26;;;;;;;14.35;12.60;;;3.70;99.90;;;;;;5074861;28;20222;-73
2022/01/05 03:44:53;;;;;;;15.40;13.82;;;3.70;99.90;;;;;;5074279;28;20475;-76
2022/01/05 03:47:22;;;;;;;15.05;13.50;;;3.50;99.90;;;;;;5071430;28;20218;-72
2022/01/05 03:49:49;;;;;;;15.40;12.98;;;3.50;99.90;;;;;;5078484;28;20695;-73
2022/01/05 03:52:16;;;;;;;14.68;13.25;;;3.40;99.90;;;;;;5078845;28;20237;-74
2022/01/05 03:54:43;;;;;;;14.82;13.43;;;3.40;99.90;;;;;;5076446;28;20198;-73
2022/01/05 03:57:10;;;;;;;14.00;12.68;;;3.40;99.90;;;;;;5074274;28;20214;-79
2022/01/05 03:59:37;;;;;;;13.77;12.38;;;3.40;99.90;;;;;;5073095;28;20199;-73
2022/01/05 04:02:05;;;;;;;13.63;11.98;;;3.50;99.90;;;;;;5078575;28;20233;-76
2022/01/05 04:04:34;;;;;;;13.68;12.35;;;3.50;99.90;;;;;;5076767;28;20222;-75
2022/01/05 04:07:01;;;;;;;14.00;12.50;;;3.60;99.90;;;;;;5079336;28;20226;-76
2022/01/05 04:09:28;;;;;;;13.90;12.50;;;3.60;99.90;;;;;;5079405;28;20194;-74
2022/01/05 04:11:55;;;;;;;13.98;12.52;;;3.50;99.90;;;;;;5075510;28;20222;-73
2022/01/05 04:14:22;;;;;;;14.15;12.73;;;3.50;99.90;;;;;;5073011;28;20228;-73
2022/01/05 04:16:50;;;;;;;15.15;13.52;;;3.60;99.90;;;;;;5075190;28;20226;-75
2022/01/05 04:19:17;;;;;;;15.15;13.65;;;3.60;99.90;;;;;;5076353;28;20195;-73
2022/01/05 04:21:45;;;;;;;15.55;13.45;;;3.60;99.90;;;;;;5074694;28;20218;-74
2022/01/05 04:24:12;;;;;;;15.38;13.77;;;3.70;99.90;;;;;;5075004;28;20217;-73
2022/01/05 04:26:39;;;;;;;16.83;14.93;;;3.60;99.90;;;;;;5075253;28;20316;-75
2022/01/05 04:29:06;;;;;;;14.65;13.23;;;3.60;99.90;;;;;;5076457;28;20195;-76
2022/01/05 04:31:33;;;;;;;15.75;14.23;;;3.60;99.90;;;;;;5077840;28;20222;-75
2022/01/05 04:34:00;;;;;;;14.98;13.48;;;3.50;99.90;;;;;;5075472;28;20198;-76
2022/01/05 04:36:27;;;;;;;13.98;12.68;;;3.50;99.90;;;;;;5075811;28;20596;-74
2022/01/05 04:38:56;;;;;;;14.88;13.38;;;3.40;99.90;;;;;;5074195;28;20194;-75
2022/01/05 04:41:23;;;;;;;14.75;13.25;;;3.40;99.90;;;;;;5071488;28;20245;-73
2022/01/05 04:43:50;;;;;;;14.55;13.05;;;3.40;99.90;;;;;;5067403;28;20224;-73
2022/01/05 04:46:17;;;;;;;14.35;12.98;;;3.40;99.90;;;;;;5076410;28;20687;-74
2022/01/05 04:48:44;;;;;;;15.52;13.88;;;3.50;99.90;;;;;;5075470;28;20209;-73
2022/01/05 04:51:11;;;;;;;16.25;14.27;;;3.50;99.90;;;;;;5076778;28;20218;-76
2022/01/05 04:53:38;;;;;;;16.08;14.45;;;3.50;99.90;;;;;;5074602;28;20213;-75
2022/01/05 04:56:07;;;;;;;15.70;14.02;;;3.50;99.90;;;;;;5075142;28;20241;-73
2022/01/05 04:58:34;;;;;;;16.17;14.52;;;3.50;99.90;;;;;;5076807;28;20252;-76
2022/01/05 05:01:01;;;;;;;17.52;15.52;;;3.50;99.90;;;;;;5074949;28;20202;-77
2022/01/05 05:03:28;;;;;;;18.42;16.45;;;3.50;99.90;;;;;;5079152;28;20252;-72
2022/01/05 05:05:55;;;;;;;17.63;15.70;;;3.40;99.90;;;;;;5074091;28;20223;-74
2022/01/05 05:08:22;;;;;;;17.73;15.70;;;3.50;99.90;;;;;;5076210;28;20206;-73
2022/01/05 05:10:49;;;;;;;17.30;15.55;;;3.50;99.90;;;;;;5077636;28;20190;-73
2022/01/05 05:13:17;;;;;;;16.90;15.15;;;3.50;99.90;;;;;;5075588;28;20667;-73
2022/01/05 05:15:44;;;;;;;15.90;14.40;;;3.40;99.90;;;;;;5074981;28;20225;-73
2022/01/05 05:18:11;;;;;;;16.15;14.45;;;3.50;99.90;;;;;;5072342;28;20214;-77
2022/01/05 05:20:40;;;;;;;16.25;14.57;;;3.50;99.90;;;;;;5072303;28;20186;-75
2022/01/05 05:23:08;;;;;;;14.80;13.30;;;3.50;99.90;;;;;;5068196;28;20215;-74
2022/01/05 05:25:35;;;;;;;20.42;16.83;;;3.50;99.90;;;;;;5114670;22;20263;-65
2022/01/05 05:28:02;;;;;;;17.08;15.38;;;3.50;99.90;;;;;;5059048;28;20237;-66
2022/01/05 05:30:30;;;;;;;17.35;15.55;;;3.50;99.90;;;;;;5061728;28;20194;-66
2022/01/05 05:32:57;;;;;;;16.13;13.95;;;3.50;99.90;;;;;;5061403;28;20215;-65
2022/01/05 05:35:26;;;;;;;16.75;15.15;;;3.50;99.90;;;;;;5061750;28;20194;-66
2022/01/05 05:37:53;;;;;;;16.85;15.25;;;3.40;99.90;;;;;;5059614;28;20243;-67
2022/01/05 05:40:20;;;;;;;15.63;14.00;;;3.30;99.90;;;;;;5063246;28;20497;-66
2022/01/05 05:42:47;;;;;;;17.48;15.80;;;3.30;99.90;;;;;;5062346;28;20599;-66
2022/01/05 05:45:14;;;;;;;17.67;15.88;;;3.30;99.90;;;;;;5063175;28;20275;-66
2022/01/05 05:47:42;;;;;;;15.90;14.30;;;3.30;99.90;;;;;;5061605;28;20234;-66
2022/01/05 05:50:10;;;;;;;19.58;17.73;;;3.30;99.90;;;;;;5061034;28;20216;-65
2022/01/05 05:52:38;;;;;;;17.70;15.98;;;3.30;99.90;;;;;;5062211;28;20214;-66
2022/01/05 05:55:06;;;;;;;15.50;13.35;;;3.20;99.90;;;;;;5056212;28;20191;-66
2022/01/05 05:57:33;;;;;;;16.02;14.52;;;3.30;99.90;;;;;;5056296;28;20222;-66
2022/01/05 06:00:00;;;;;;;17.30;15.38;;;3.30;99.90;;;;;;5063472;28;20263;-66
2022/01/05 06:02:27;;;;;;;16.90;15.13;;;3.40;99.90;;;;;;5062723;28;20221;-66
2022/01/05 06:04:55;;;;;;;18.15;15.63;;;3.40;99.90;;;;;;5057850;28;20219;-66
2022/01/05 06:07:22;;;;;;;16.83;15.23;;;3.50;99.90;;;;;;5062101;28;20272;-66
2022/01/05 06:09:49;;;;;;;17.33;14.95;;;3.50;99.90;;;;;;5061188;28;20203;-66
2022/01/05 06:12:16;;;;;;;18.05;16.17;;;3.50;99.90;;;;;;5063358;28;20742;-66
2022/01/05 06:14:43;;;;;;;17.33;15.50;;;3.50;99.90;;;;;;5058912;28;20206;-65
2022/01/05 06:17:10;;;;;;;17.40;15.75;;;3.50;99.90;;;;;;5059005;28;20226;-66
2022/01/05 06:19:37;;;;;;;18.55;16.40;;;3.40;99.90;;;;;;5057556;28;20202;-65
2022/01/05 06:22:06;;;;;;;16.88;15.18;;;3.40;99.90;;;;;;5062237;28;20222;-65
2022/01/05 06:24:34;;;;;;;18.85;17.00;;;3.40;99.90;;;;;;5059799;28;20259;-66
2022/01/05 06:27:01;;;;;;;17.63;16.00;;;3.50;99.90;;;;;;5062771;28;20574;-66
2022/01/05 06:29:28;;;;;;;16.95;15.30;;;3.50;99.90;;;;;;5057808;28;20198;-66
2022/01/05 06:31:55;;;;;;;17.40;15.60;;;3.50;99.90;;;;;;5054566;28;20275;-66
2022/01/05 06:34:22;;;;;;;16.80;15.10;;;3.50;99.90;;;;;;5057890;28;20700;-66
2022/01/05 06:36:49;;;;;;;20.90;18.70;;;3.60;99.90;;;;;;5055481;28;20218;-65
2022/01/05 06:39:18;;;;;;;20.13;18.02;;;3.60;99.90;;;;;;5064106;28;20252;-66
2022/01/05 06:41:45;;;;;;;17.98;16.05;;;3.60;99.90;;;;;;5057477;28;20222;-66
2022/01/05 06:44:12;;;;;;;18.02;16.20;;;3.60;99.90;;;;;;5061011;28;20267;-66
2022/01/05 06:46:39;;;;;;;17.00;15.30;;;3.50;99.90;;;;;;5060121;28;20229;-66
2022/01/05 06:49:06;;;;;;;18.13;16.20;;;3.50;99.90;;;;;;5064180;28;20657;-66
2022/01/05 06:51:33;;;;;;;18.35;16.48;;;3.40;99.90;;;;;;5061777;28;20244;-65
2022/01/05 06:54:00;;;;;;;17.05;15.45;;;3.30;99.90;;;;;;5060596;28;20190;-66
2022/01/05 06:56:28;;;;;;;16.58;14.88;;;3.30;99.90;;;;;;5060279;28;20214;-66
2022/01/05 06:58:55;;;;;;;16.30;14.70;;;3.40;99.90;;;;;;5057670;28;20203;-66
2022/01/05 07:01:22;;;;;;;17.02;15.38;;;3.40;99.90;;;;;;5054264;28;20198;-66
2022/01/05 07:03:49;;;;;;;17.25;15.55;;;3.40;99.90;;;;;;5050961;28;20210;-66
2022/01/05 07:06:16;;;;;;;16.05;14.52;;;3.40;99.90;;;;;;5052653;28;20218;-66
2022/01/05 07:08:43;;;;;;;16.65;14.93;;;3.40;99.90;;;;;;5059351;28;20593;-66
2022/01/05 07:11:10;;;;;;;16.40;14.80;;;3.40;99.90;;;;;;5050322;28;20195;-66
2022/01/05 07:13:39;;;;;;;16.95;15.25;;;3.40;99.90;;;;;;5058180;28;20214;-66
2022/01/05 07:16:06;;;;;;;17.00;15.40;;;3.40;99.90;;;;;;5056551;28;20491;-67
2022/01/05 07:18:33;;;;;;;21.55;19.33;;;3.40;99.90;;;;;;5057960;28;20288;-66
2022/01/05 07:21:00;;;;;;;19.08;17.27;;;3.40;99.90;;;;;;5053488;28;20190;-66
2022/01/05 07:23:27;;;;;;;21.45;19.17;;;3.40;99.90;;;;;;5054515;28;20242;-66
2022/01/05 07:25:54;;;;;;;19.08;17.13;;;3.40;99.90;;;;;;5053051;28;20299;-66
2022/01/05 07:28:21;;;;;;;19.38;16.98;;;3.30;99.90;;;;;;5054461;28;20521;-66
2022/01/05 07:30:49;;;;;;;20.75;18.58;;;3.30;99.90;;;;;;5058764;28;20198;-66
2022/01/05 07:33:16;;;;;;;19.88;17.88;;;3.30;99.90;;;;;;5057671;28;20280;-66
2022/01/05 07:35:43;;;;;;;19.65;17.77;;;3.30;99.90;;;;;;5057784;28;21075;-66
2022/01/05 07:38:11;;;;;;;20.08;18.00;;;3.20;99.90;;;;;;5058001;28;20283;-66
2022/01/05 07:40:38;;;;;;;21.60;19.40;;;3.20;99.90;;;;;;5058502;28;20199;-65
2022/01/05 07:43:06;;;;;;;19.85;17.83;;;3.20;99.90;;;;;;5056667;28;20252;-66
2022/01/05 07:45:35;;;;;;;18.88;16.98;;;3.10;99.90;;;;;;5058027;28;20237;-66
2022/01/05 07:48:03;;;;;;;18.73;16.98;;;3.10;99.90;;;;;;5057224;28;20282;-66
2022/01/05 07:50:30;;;;;;;17.80;15.88;;;3.10;99.90;;;;;;5062712;28;20198;-66
2022/01/05 07:53:00;;;;;;;39.97;17.98;;;3.20;99.90;;;;;;5056521;28;20794;-66
2022/01/05 07:55:28;;;;;;;100.65;24.77;;;3.10;99.90;;;;;;5058316;28;20199;-66
2022/01/05 07:57:55;;;;;;;59.08;17.98;;;3.10;99.90;;;;;;5060165;28;20240;-66
2022/01/05 08:00:22;;;;;;;47.03;17.10;;;3.10;99.90;;;;;;5058808;28;20248;-66
2022/01/05 08:02:49;;;;;;;16.02;14.52;;;3.00;99.90;;;;;;5057861;28;20230;-66
2022/01/05 08:05:18;;;;;;;26.08;19.17;;;2.90;99.90;;;;;;5060664;28;20241;-67
2022/01/05 08:07:45;;;;;;;16.00;14.40;;;3.00;99.90;;;;;;5056933;28;20222;-66
2022/01/05 08:10:12;;;;;;;13.30;12.10;;;3.00;99.90;;;;;;5056739;28;20276;-66
2022/01/05 08:12:41;;;;;;;13.75;12.48;;;3.00;99.90;;;;;;5055638;28;20666;-66
2022/01/05 08:15:09;;;;;;;14.25;13.05;;;3.20;99.90;;;;;;5054619;28;20678;-66
2022/01/05 08:17:38;;;;;;;12.95;11.85;;;3.20;99.90;;;;;;5062165;28;20305;-65
2022/01/05 08:20:06;;;;;;;13.50;12.20;;;3.30;99.90;;;;;;5058289;28;20194;-66
2022/01/05 08:22:35;;;;;;;16.67;15.18;;;3.30;99.90;;;;;;5055041;28;20720;-66
2022/01/05 08:25:02;;;;;;;16.58;15.07;;;3.40;99.90;;;;;;5057810;28;20248;-66
2022/01/05 08:27:29;;;;;;;14.75;13.45;;;3.30;99.90;;;;;;5057117;28;20559;-67
2022/01/05 08:29:56;;;;;;;14.55;13.25;;;3.40;99.90;;;;;;5058654;28;20202;-67
2022/01/05 08:32:23;;;;;;;13.63;12.32;;;3.40;99.90;;;;;;5057914;28;20319;-66
2022/01/05 08:34:50;;;;;;;14.63;13.32;;;3.40;99.90;;;;;;5057553;28;20649;-66
2022/01/05 08:37:17;;;;;;;13.80;12.52;;;3.40;99.90;;;;;;5059336;28;20287;-66
2022/01/05 08:39:49;;;;;;;14.90;13.35;;;3.40;99.90;;;;;;5057232;28;20275;-66
2022/01/05 08:42:16;;;;;;;15.05;13.68;;;3.40;99.90;;;;;;5057255;28;20225;-66
2022/01/05 08:44:44;;;;;;;15.07;13.68;;;3.40;99.90;;;;;;5059134;28;20202;-66
2022/01/05 08:47:11;;;;;;;14.73;13.40;;;3.50;99.90;;;;;;5055293;28;20450;-66
2022/01/05 08:49:38;;;;;;;13.10;11.90;;;3.60;99.90;;;;;;5057807;28;20731;-66
2022/01/05 08:52:06;;;;;;;12.85;11.65;;;3.60;99.90;;;;;;5059925;28;20230;-66
2022/01/05 08:54:33;;;;;;;10.90;9.90;;;3.70;99.90;;;;;;5060930;28;20205;-66
2022/01/05 08:57:01;;;;;;;10.60;9.70;;;3.70;99.90;;;;;;5058525;28;20235;-66
2022/01/05 08:59:28;;;;;;;11.18;10.18;;;3.80;99.90;;;;;;5054837;28;20191;-66
2022/01/05 09:01:55;;;;;;;10.38;9.48;;;3.80;99.90;;;;;;5054733;28;20437;-66
2022/01/05 09:04:22;;;;;;;8.70;8.00;;;3.90;99.90;;;;;;5058736;28;20199;-66
2022/01/05 09:06:50;;;;;;;8.38;7.68;;;3.90;99.90;;;;;;5058581;28;20601;-66
2022/01/05 09:09:17;;;;;;;7.55;6.95;;;3.90;99.90;;;;;;5054998;28;20206;-66
2022/01/05 09:11:44;;;;;;;7.03;6.53;;;4.00;99.90;;;;;;5055204;28;21624;-65
2022/01/05 09:14:12;;;;;;;7.40;6.80;;;4.00;99.90;;;;;;5058258;28;20210;-66
2022/01/05 09:16:39;;;;;;;8.82;8.02;;;4.00;99.90;;;;;;5055770;28;20762;-66
2022/01/05 09:19:06;;;;;;;6.72;6.20;;;3.90;99.90;;;;;;5056465;28;20218;-66
2022/01/05 09:21:33;;;;;;;6.63;6.13;;;3.90;99.90;;;;;;5057460;28;20213;-65
2022/01/05 09:24:00;;;;;;;6.72;6.22;;;3.80;99.90;;;;;;5054785;28;20375;-66
2022/01/05 09:26:27;;;;;;;6.55;6.05;;;3.80;99.90;;;;;;5059007;28;20268;-66
2022/01/05 09:28:54;;;;;;;5.82;5.43;;;3.80;99.90;;;;;;5056267;28;20720;-67
2022/01/05 09:31:23;;;;;;;5.55;5.25;;;3.80;99.90;;;;;;5057477;28;20443;-66
2022/01/05 09:33:50;;;;;;;4.82;4.53;;;3.80;99.90;;;;;;5055614;28;20794;-66
2022/01/05 09:36:21;;;;;;;4.85;4.55;;;3.80;99.90;;;;;;5055733;28;20265;-65
2022/01/05 09:44:18;;;;;;;4.50;4.20;;;3.80;99.90;;;;;;5057929;28;20568;-66
2022/01/05 09:46:59;;;;;;;4.40;4.10;;;3.80;99.90;;;;;;5057663;28;20268;-66
2022/01/05 09:49:32;;;;;;;4.47;4.18;;;3.80;99.90;;;;;;5052616;28;20213;-66
2022/01/05 09:52:04;;;;;;;3.85;3.65;;;3.90;99.90;;;;;;5054323;28;20243;-65
2022/01/05 09:54:33;;;;;;;4.18;3.97;;;3.90;99.90;;;;;;5055380;28;20214;-66
2022/01/05 09:57:01;;;;;;;3.67;3.47;;;3.90;99.90;;;;;;5053915;28;20218;-66
2022/01/05 09:59:29;;;;;;;3.50;3.30;;;4.00;99.90;;;;;;5054477;28;20283;-66
2022/01/05 10:01:58;;;;;;;3.88;3.67;;;4.00;99.90;;;;;;5057716;28;20198;-66
2022/01/05 10:04:25;;;;;;;3.28;3.13;;;4.10;99.90;;;;;;5054763;28;20222;-67
2022/01/05 10:06:52;;;;;;;6.13;5.18;;;4.10;99.90;;;;;;5055180;28;20217;-66
2022/01/05 10:09:19;;;;;;;5.15;4.85;;;4.20;99.90;;;;;;5050838;28;20661;-66
2022/01/05 10:11:46;;;;;;;4.20;4.00;;;4.20;99.90;;;;;;5056895;28;20217;-66
2022/01/05 10:14:13;;;;;;;3.97;3.78;;;4.20;99.90;;;;;;5057004;28;20222;-65
2022/01/05 10:16:41;;;;;;;4.00;3.80;;;4.20;99.90;;;;;;5056769;28;20305;-67
2022/01/05 10:19:21;;;;;;;4.72;4.43;;;4.20;99.90;;;;;;5056605;28;20218;-65
2022/01/05 10:21:48;;;;;;;5.00;4.60;;;4.20;99.90;;;;;;5054754;28;20321;-66
2022/01/05 10:24:15;;;;;;;5.70;5.30;;;4.10;99.90;;;;;;5056094;28;20232;-66
2022/01/05 10:26:42;;;;;;;5.30;5.00;;;4.20;99.90;;;;;;5054499;28;20621;-66
2022/01/05 10:29:16;;;;;;;6.00;5.50;;;4.20;99.90;;;;;;5054385;28;20257;-66
2022/01/05 10:31:43;;;;;;;4.90;4.60;;;4.10;99.90;;;;;;5055117;28;20374;-66
2022/01/05 10:34:17;;;;;;;4.75;4.45;;;4.20;99.90;;;;;;5058505;28;20226;-67
2022/01/05 10:36:46;;;;;;;4.30;4.00;;;4.10;99.90;;;;;;5051807;28;20218;-67
2022/01/05 10:39:14;;;;;;;4.30;4.03;;;4.10;99.90;;;;;;5051617;28;20226;-67
2022/01/05 10:41:43;;;;;;;4.50;4.20;;;4.10;99.90;;;;;;5053472;28;20247;-66
2022/01/05 10:44:17;;;;;;;3.88;3.67;;;4.20;99.90;;;;;;5050826;28;20654;-67
2022/01/05 10:46:50;;;;;;;3.90;3.60;;;4.30;99.90;;;;;;5055103;28;20558;-66
2022/01/05 10:49:26;;;;;;;4.70;4.40;;;4.30;99.90;;;;;;5053649;28;20276;-66
2022/01/05 10:51:53;;;;;;;3.92;3.72;;;4.30;99.90;;;;;;5054761;28;20194;-66
2022/01/05 10:54:22;;;;;;;3.92;3.72;;;4.40;99.90;;;;;;5051913;28;20233;-67
2022/01/05 10:56:50;;;;;;;3.95;3.75;;;4.40;99.90;;;;;;5049511;28;20227;-66
2022/01/05 10:59:28;;;;;;;3.58;3.38;;;4.50;99.90;;;;;;5053666;28;20653;-67
2022/01/05 11:01:56;;;;;;;4.63;4.25;;;4.50;99.90;;;;;;5053412;28;20677;-66
2022/01/05 11:04:24;;;;;;;5.72;5.28;;;4.50;99.90;;;;;;5057838;28;20301;-66
2022/01/05 11:06:59;;;;;;;6.68;6.18;;;4.40;99.90;;;;;;5053105;28;20225;-66
2022/01/05 11:09:26;;;;;;;6.88;6.38;;;4.40;99.90;;;;;;5056270;28;20770;-66
2022/01/05 11:11:53;;;;;;;7.65;6.95;;;4.40;99.90;;;;;;5058949;28;20217;-66
2022/01/05 11:14:29;;;;;;;7.45;6.82;;;4.30;99.90;;;;;;5058926;28;20369;-66
2022/01/05 11:16:56;;;;;;;9.35;8.57;;;4.30;99.90;;;;;;5060241;28;20271;-66
2022/01/05 11:19:27;;;;;;;7.60;7.00;;;4.30;99.90;;;;;;5056543;28;20770;-66
2022/01/05 11:22:05;;;;;;;7.80;7.15;;;4.40;99.90;;;;;;5053441;28;20199;-66
2022/01/05 11:24:35;;;;;;;7.57;6.97;;;4.40;99.90;;;;;;5056766;28;20745;-67
2022/01/05 11:27:04;;;;;;;6.53;6.03;;;4.50;99.90;;;;;;5095127;22;20226;-75
2022/01/05 11:29:31;;;;;;;6.18;5.78;;;4.50;99.90;;;;;;5058066;28;20226;-70
2022/01/05 11:31:58;;;;;;;6.60;6.10;;;4.50;99.90;;;;;;5060439;28;20218;-73
2022/01/05 11:34:29;;;;;;;6.50;6.00;;;4.60;99.90;;;;;;5058277;28;20217;-71
2022/01/05 11:36:58;;;;;;;7.47;6.88;;;4.60;99.90;;;;;;5059440;28;20217;-73
2022/01/05 11:39:25;;;;;;;6.50;6.00;;;4.60;99.90;;;;;;5056566;28;20735;-73
2022/01/05 11:41:54;;;;;;;5.88;5.47;;;4.60;99.90;;;;;;5058788;28;20707;-73
2022/01/05 11:44:21;;;;;;;5.70;5.35;;;4.60;99.90;;;;;;5054670;28;20444;-72
2022/01/05 11:46:49;;;;;;;5.18;4.78;;;4.60;99.90;;;;;;5056306;28;20226;-73
2022/01/05 11:49:25;;;;;;;4.90;4.60;;;4.70;99.90;;;;;;5055705;28;20645;-73
2022/01/05 11:51:56;;;;;;;5.15;4.78;;;4.70;99.90;;;;;;5055739;28;20194;-73
2022/01/05 11:54:25;;;;;;;4.50;4.20;;;4.70;99.90;;;;;;5056396;28;20214;-74
2022/01/05 11:56:54;;;;;;;4.93;4.53;;;4.70;99.90;;;;;;5059281;28;20604;-75
2022/01/05 11:59:33;;;;;;;5.63;5.20;;;4.70;99.90;;;;;;5050317;28;20855;-72
2022/01/05 12:02:06;;;;;;;5.80;5.35;;;4.80;99.90;;;;;;5069276;28;20525;-72
2022/01/05 12:05:01;;;;;;;4.63;4.32;;;4.80;99.90;;;;;;5053964;28;20326;-74
2022/01/05 12:07:39;;;;;;;5.50;5.10;;;4.80;99.90;;;;;;5056145;28;20242;-71
2022/01/05 12:10:17;;;;;;;4.18;3.88;;;4.80;99.90;;;;;;5057739;28;20608;-75
2022/01/05 12:12:59;;;;;;;5.65;5.15;;;4.80;99.90;;;;;;5055740;28;20233;-75
2022/01/05 12:15:50;;;;;;;4.68;4.38;;;4.80;99.90;;;;;;5057243;28;20205;-74
2022/01/05 12:18:25;;;;;;;5.10;4.70;;;4.90;99.90;;;;;;5055194;28;20222;-72
2022/01/05 12:20:54;;;;;;;5.93;5.38;;;4.90;99.90;;;;;;5057387;28;20968;-73
2022/01/05 12:23:25;;;;;;;12.05;9.85;;;4.90;99.90;;;;;;5051629;28;20225;-73
2022/01/05 12:26:17;;;;;;;39.13;21.83;;;4.90;99.90;;;;;;5056184;28;20297;-72
2022/01/05 12:28:54;;;;;;;14.35;10.25;;;4.90;99.90;;;;;;5070400;28;20229;-71
2022/01/05 12:31:55;;;;;;;9.02;7.90;;;4.90;99.90;;;;;;5057821;28;20194;-73
2022/01/05 12:34:52;;;;;;;8.48;7.18;;;4.90;99.90;;;;;;5056083;28;20246;-72
2022/01/05 12:37:48;;;;;;;7.05;6.32;;;5.00;99.90;;;;;;5056095;28;20313;-71
2022/01/05 12:40:35;;;;;;;6.35;5.75;;;5.00;99.90;;;;;;5052414;28;20288;-74
2022/01/05 12:43:34;;;;;;;6.13;5.63;;;4.90;99.90;;;;;;5057688;28;20202;-73
2022/01/05 12:46:05;;;;;;;5.90;5.50;;;4.90;99.90;;;;;;5053655;28;20198;-74
2022/01/05 12:49:04;;;;;;;7.80;7.10;;;4.90;99.90;;;;;;5052989;28;20226;-76
2022/01/05 12:51:44;;;;;;;7.55;6.95;;;4.90;99.90;;;;;;5051997;28;20194;-75
2022/01/05 12:54:17;;;;;;;7.30;6.70;;;4.90;99.90;;;;;;5050560;28;20224;-74
2022/01/05 12:56:48;;;;;;;6.10;5.68;;;4.80;99.90;;;;;;5061050;28;20305;-73
2022/01/05 12:59:18;;;;;;;6.38;5.88;;;4.90;99.90;;;;;;5053079;28;20249;-73